Airfield :
LOGIN :

Register | Disclaimer

   EN    FR    IT 

 










Legend :    VFR   Marginal VFR   IFR   Intensive IFR   Very Intensive IFR
Visi :
Ceiling :
>= 8 km
>= 3000ft
5 to 8 km
1000 to 3000 ft
1500m to 5 km
500 to 1000 ft
800 to 1500m
200 to 500 ft
< 800m
< 200 ft
Symbols :   Thunderstorms  Fog  Heavy snow  Heavy precipitations  Wind > 20 kt
SIGMETs :     Misc.  Thunderstorms  Icing  Turbulence  Mountain Waves  Volcanic Ashes







- Airport Elevation : 12 ft
- IATA code : NCE
- Download approach charts


LFMN - Nice

CURRENT METAR :
  • 220400Z 33009KT 9999 FEW020 14/06 Q1019 NOSIG

EXPIRED METARs :
  • 220330Z 33009KT 9999 FEW020 14/06 Q1019 NOSIG
  • 220300Z 33009KT 9999 FEW020 14/07 Q1019 NOSIG
  • 220230Z 33009KT CAVOK 14/07 Q1019 NOSIG
  • 220200Z 34007KT CAVOK 14/07 Q1020 NOSIG
  • 220130Z 34007KT CAVOK 15/08 Q1020 NOSIG

TAF TAF LFMN
Valid from the 22 at 03:00 until the 23 at 09:00 UTC


220200Z 2203/2309 34006KT CAVOK
BECMG 2208/2210 16006KT
BECMG 2216/2218 SCT015 BKN220
BECMG 2219/2221 34006KT BKN006
BECMG 2308/2309 12010KT FEW020
ATIS : +33 4 93 17 21 16
No reported NOTAMs for that airfield.



MET'MAP, your aeronautical weather chart ! - Copyright ORBIFLY December 2007 - Disclaimer

ORBIFLY MET'MAP TEAM :

Programming & Development : Alexandra Zaïnal
Concept & Development : Baudouin d'Aumeries
Co-Development & Prog : Marc-Olivier Méhu
Technical & hardware support : Manuel Goepfert

Contact : metmap@orbifly.com




SOURCES & CREDITS :

   NOAA